sensor_id;sensor_type;location;lat;lon;timestamp;P1;durP1;ratioP1;P2;durP2;ratioP2
6941;SDS011;3510;43.200;27.920;2023-04-24T05:08:38;13.87;;;7.70;;
6941;SDS011;3510;43.200;27.920;2023-04-24T05:11:06;17.93;;;9.10;;
6941;SDS011;3510;43.200;27.920;2023-04-24T05:13:33;24.00;;;8.37;;
6941;SDS011;3510;43.200;27.920;2023-04-24T05:16:00;15.20;;;7.90;;
6941;SDS011;3510;43.200;27.920;2023-04-24T05:18:27;25.30;;;8.10;;
6941;SDS011;3510;43.200;27.920;2023-04-24T05:21:08;12.63;;;6.60;;
6941;SDS011;3510;43.200;27.920;2023-04-24T05:23:38;10.77;;;7.07;;
6941;SDS011;3510;43.200;27.920;2023-04-24T05:26:05;13.90;;;5.30;;
6941;SDS011;3510;43.200;27.920;2023-04-24T05:28:32;10.13;;;5.07;;
6941;SDS011;3510;43.200;27.920;2023-04-24T05:31:01;5.83;;;4.80;;
6941;SDS011;3510;43.200;27.920;2023-04-24T05:33:29;8.77;;;5.07;;
6941;SDS011;3510;43.200;27.920;2023-04-24T05:35:57;6.93;;;5.30;;
6941;SDS011;3510;43.200;27.920;2023-04-24T05:38:24;6.90;;;4.93;;
6941;SDS011;3510;43.200;27.920;2023-04-24T05:43:40;6.40;;;4.97;;
6941;SDS011;3510;43.200;27.920;2023-04-24T05:46:09;10.30;;;5.17;;
6941;SDS011;3510;43.200;27.920;2023-04-24T05:48:35;8.13;;;4.20;;
6941;SDS011;3510;43.200;27.920;2023-04-24T05:51:02;9.20;;;4.40;;
6941;SDS011;3510;43.200;27.920;2023-04-24T05:53:29;6.77;;;6.00;;
6941;SDS011;3510;43.200;27.920;2023-04-24T06:06:13;4.70;;;3.60;;
6941;SDS011;3510;43.200;27.920;2023-04-24T06:21:49;17.20;;;4.33;;
6941;SDS011;3510;43.200;27.920;2023-04-24T06:24:17;6.87;;;4.20;;
6941;SDS011;3510;43.200;27.920;2023-04-24T06:26:44;7.33;;;4.07;;
6941;SDS011;3510;43.200;27.920;2023-04-24T06:29:10;7.67;;;4.67;;
6941;SDS011;3510;43.200;27.920;2023-04-24T06:31:38;7.23;;;4.03;;
6941;SDS011;3510;43.200;27.920;2023-04-24T06:34:25;5.77;;;3.97;;
6941;SDS011;3510;43.200;27.920;2023-04-24T06:37:02;6.10;;;4.00;;
6941;SDS011;3510;43.200;27.920;2023-04-24T06:39:43;6.20;;;4.03;;
6941;SDS011;3510;43.200;27.920;2023-04-24T06:42:17;7.57;;;4.10;;
6941;SDS011;3510;43.200;27.920;2023-04-24T06:44:47;5.83;;;4.20;;
6941;SDS011;3510;43.200;27.920;2023-04-24T06:47:15;8.73;;;4.27;;
6941;SDS011;3510;43.200;27.920;2023-04-24T06:49:58;7.40;;;4.60;;
6941;SDS011;3510;43.200;27.920;2023-04-24T06:52:35;6.97;;;4.20;;
6941;SDS011;3510;43.200;27.920;2023-04-24T06:55:02;13.33;;;4.60;;
6941;SDS011;3510;43.200;27.920;2023-04-24T06:57:30;7.93;;;4.00;;
6941;SDS011;3510;43.200;27.920;2023-04-24T06:59:58;11.77;;;4.30;;
6941;SDS011;3510;43.200;27.920;2023-04-24T07:02:26;7.13;;;3.83;;
6941;SDS011;3510;43.200;27.920;2023-04-24T07:04:52;17.27;;;5.37;;
6941;SDS011;3510;43.200;27.920;2023-04-24T07:07:19;6.60;;;3.30;;
6941;SDS011;3510;43.200;27.920;2023-04-24T07:09:48;5.43;;;3.70;;
6941;SDS011;3510;43.200;27.920;2023-04-24T07:12:16;11.87;;;3.87;;
6941;SDS011;3510;43.200;27.920;2023-04-24T07:14:45;7.87;;;4.23;;
6941;SDS011;3510;43.200;27.920;2023-04-24T07:17:12;9.03;;;4.30;;
6941;SDS011;3510;43.200;27.920;2023-04-24T07:19:40;12.47;;;4.80;;
6941;SDS011;3510;43.200;27.920;2023-04-24T07:22:15;4.87;;;3.70;;
6941;SDS011;3510;43.200;27.920;2023-04-24T07:24:42;5.33;;;3.87;;
6941;SDS011;3510;43.200;27.920;2023-04-24T07:27:10;4.03;;;3.73;;
6941;SDS011;3510;43.200;27.920;2023-04-24T07:29:40;5.23;;;3.77;;
6941;SDS011;3510;43.200;27.920;2023-04-24T07:32:06;7.85;;;4.47;;
6941;SDS011;3510;43.200;27.920;2023-04-24T07:34:37;6.77;;;4.47;;
6941;SDS011;3510;43.200;27.920;2023-04-24T07:37:09;6.90;;;4.77;;
6941;SDS011;3510;43.200;27.920;2023-04-24T07:39:36;6.87;;;4.77;;
6941;SDS011;3510;43.200;27.920;2023-04-24T07:42:05;22.27;;;6.90;;
6941;SDS011;3510;43.200;27.920;2023-04-24T07:44:33;8.05;;;4.45;;
6941;SDS011;3510;43.200;27.920;2023-04-24T07:47:01;8.75;;;4.40;;
6941;SDS011;3510;43.200;27.920;2023-04-24T07:49:27;10.57;;;4.40;;
6941;SDS011;3510;43.200;27.920;2023-04-24T07:51:54;9.70;;;4.15;;
6941;SDS011;3510;43.200;27.920;2023-04-24T07:54:21;11.10;;;4.43;;
6941;SDS011;3510;43.200;27.920;2023-04-24T07:56:48;9.07;;;4.80;;
6941;SDS011;3510;43.200;27.920;2023-04-24T07:59:15;11.80;;;4.60;;
6941;SDS011;3510;43.200;27.920;2023-04-24T08:04:20;4.57;;;4.00;;
6941;SDS011;3510;43.200;27.920;2023-04-24T08:06:48;12.03;;;3.80;;
6941;SDS011;3510;43.200;27.920;2023-04-24T08:09:15;5.38;;;4.18;;
6941;SDS011;3510;43.200;27.920;2023-04-24T08:11:56;5.73;;;4.00;;
6941;SDS011;3510;43.200;27.920;2023-04-24T08:14:23;10.52;;;3.92;;
6941;SDS011;3510;43.200;27.920;2023-04-24T08:16:53;6.13;;;3.57;;
6941;SDS011;3510;43.200;27.920;2023-04-24T08:22:04;5.87;;;4.40;;
6941;SDS011;3510;43.200;27.920;2023-04-24T08:24:33;8.98;;;4.40;;
6941;SDS011;3510;43.200;27.920;2023-04-24T08:27:01;8.65;;;4.10;;
6941;SDS011;3510;43.200;27.920;2023-04-24T08:29:28;5.37;;;3.90;;
6941;SDS011;3510;43.200;27.920;2023-04-24T08:31:55;6.00;;;3.47;;
6941;SDS011;3510;43.200;27.920;2023-04-24T08:34:22;9.18;;;3.60;;
6941;SDS011;3510;43.200;27.920;2023-04-24T08:36:50;7.80;;;3.60;;
6941;SDS011;3510;43.200;27.920;2023-04-24T08:39:18;10.68;;;3.60;;
6941;SDS011;3510;43.200;27.920;2023-04-24T08:41:45;10.13;;;4.05;;
6941;SDS011;3510;43.200;27.920;2023-04-24T08:44:15;10.35;;;3.60;;
6941;SDS011;3510;43.200;27.920;2023-04-24T08:46:44;7.95;;;4.85;;
6941;SDS011;3510;43.200;27.920;2023-04-24T08:49:14;5.78;;;3.90;;
6941;SDS011;3510;43.200;27.920;2023-04-24T08:51:54;4.30;;;3.97;;
6941;SDS011;3510;43.200;27.920;2023-04-24T08:54:21;7.93;;;4.25;;
6941;SDS011;3510;43.200;27.920;2023-04-24T08:56:49;5.95;;;4.07;;
6941;SDS011;3510;43.200;27.920;2023-04-24T08:59:19;7.95;;;3.90;;
6941;SDS011;3510;43.200;27.920;2023-04-24T09:01:48;4.50;;;4.20;;
6941;SDS011;3510;43.200;27.920;2023-04-24T09:04:18;9.53;;;3.90;;
6941;SDS011;3510;43.200;27.920;2023-04-24T09:06:49;6.93;;;4.83;;
6941;SDS011;3510;43.200;27.920;2023-04-24T09:09:18;13.70;;;4.50;;
6941;SDS011;3510;43.200;27.920;2023-04-24T09:11:46;10.95;;;4.88;;
6941;SDS011;3510;43.200;27.920;2023-04-24T09:14:13;6.38;;;4.80;;
6941;SDS011;3510;43.200;27.920;2023-04-24T09:16:41;6.07;;;4.20;;
6941;SDS011;3510;43.200;27.920;2023-04-24T09:19:08;10.88;;;4.47;;
6941;SDS011;3510;43.200;27.920;2023-04-24T09:21:35;6.68;;;3.78;;
6941;SDS011;3510;43.200;27.920;2023-04-24T09:24:03;10.17;;;4.27;;
6941;SDS011;3510;43.200;27.920;2023-04-24T09:26:36;7.57;;;3.60;;
6941;SDS011;3510;43.200;27.920;2023-04-24T09:29:03;11.27;;;3.63;;
6941;SDS011;3510;43.200;27.920;2023-04-24T09:31:30;5.60;;;3.72;;
6941;SDS011;3510;43.200;27.920;2023-04-24T09:33:58;10.53;;;4.07;;
6941;SDS011;3510;43.200;27.920;2023-04-24T09:36:29;7.10;;;4.55;;
6941;SDS011;3510;43.200;27.920;2023-04-24T09:38:58;5.78;;;4.20;;
6941;SDS011;3510;43.200;27.920;2023-04-24T09:41:27;4.47;;;4.07;;
6941;SDS011;3510;43.200;27.920;2023-04-24T09:43:56;8.48;;;3.85;;
6941;SDS011;3510;43.200;27.920;2023-04-24T09:46:29;9.98;;;4.30;;
6941;SDS011;3510;43.200;27.920;2023-04-24T09:48:57;8.57;;;4.00;;
6941;SDS011;3510;43.200;27.920;2023-04-24T09:51:33;9.63;;;3.63;;
6941;SDS011;3510;43.200;27.920;2023-04-24T09:54:02;5.68;;;4.40;;
6941;SDS011;3510;43.200;27.920;2023-04-24T09:56:32;8.52;;;4.15;;
6941;SDS011;3510;43.200;27.920;2023-04-24T09:59:08;4.22;;;3.50;;
6941;SDS011;3510;43.200;27.920;2023-04-24T10:01:35;12.20;;;4.53;;
6941;SDS011;3510;43.200;27.920;2023-04-24T10:04:03;8.63;;;4.13;;
6941;SDS011;3510;43.200;27.920;2023-04-24T10:06:33;7.55;;;3.40;;
6941;SDS011;3510;43.200;27.920;2023-04-24T10:09:00;5.07;;;3.58;;
6941;SDS011;3510;43.200;27.920;2023-04-24T10:11:29;7.47;;;4.10;;
6941;SDS011;3510;43.200;27.920;2023-04-24T10:13:57;15.15;;;5.80;;
6941;SDS011;3510;43.200;27.920;2023-04-24T10:16:26;9.60;;;4.40;;
6941;SDS011;3510;43.200;27.920;2023-04-24T10:18:53;4.30;;;3.83;;
6941;SDS011;3510;43.200;27.920;2023-04-24T10:21:34;11.32;;;4.80;;
6941;SDS011;3510;43.200;27.920;2023-04-24T10:24:04;9.43;;;4.53;;
6941;SDS011;3510;43.200;27.920;2023-04-24T10:26:34;6.80;;;3.97;;
6941;SDS011;3510;43.200;27.920;2023-04-24T10:29:02;4.65;;;3.45;;
6941;SDS011;3510;43.200;27.920;2023-04-24T10:31:36;9.75;;;4.10;;
6941;SDS011;3510;43.200;27.920;2023-04-24T10:34:04;12.67;;;4.60;;
6941;SDS011;3510;43.200;27.920;2023-04-24T10:36:32;8.43;;;4.47;;
6941;SDS011;3510;43.200;27.920;2023-04-24T10:39:00;9.00;;;5.35;;
6941;SDS011;3510;43.200;27.920;2023-04-24T10:41:31;20.33;;;5.20;;
6941;SDS011;3510;43.200;27.920;2023-04-24T10:44:04;8.63;;;4.70;;
6941;SDS011;3510;43.200;27.920;2023-04-24T10:49:39;11.38;;;4.22;;
6941;SDS011;3510;43.200;27.920;2023-04-24T10:52:08;8.52;;;4.38;;
6941;SDS011;3510;43.200;27.920;2023-04-24T10:54:36;6.95;;;4.22;;
6941;SDS011;3510;43.200;27.920;2023-04-24T11:03:21;8.25;;;4.72;;
6941;SDS011;3510;43.200;27.920;2023-04-24T11:06:05;9.98;;;3.97;;
6941;SDS011;3510;43.200;27.920;2023-04-24T11:08:37;12.13;;;5.00;;
6941;SDS011;3510;43.200;27.920;2023-04-24T11:11:18;7.50;;;4.60;;
6941;SDS011;3510;43.200;27.920;2023-04-24T11:16:44;10.07;;;4.30;;
6941;SDS011;3510;43.200;27.920;2023-04-24T11:22:44;5.63;;;3.95;;
6941;SDS011;3510;43.200;27.920;2023-04-24T11:25:11;9.65;;;4.70;;
6941;SDS011;3510;43.200;27.920;2023-04-24T11:27:52;9.00;;;5.03;;
6941;SDS011;3510;43.200;27.920;2023-04-24T11:30:49;5.10;;;4.60;;
6941;SDS011;3510;43.200;27.920;2023-04-24T11:36:06;10.77;;;4.73;;
6941;SDS011;3510;43.200;27.920;2023-04-24T11:44:06;9.27;;;4.60;;
6941;SDS011;3510;43.200;27.920;2023-04-24T11:46:40;12.32;;;4.38;;
6941;SDS011;3510;43.200;27.920;2023-04-24T11:54:28;6.72;;;4.28;;
6941;SDS011;3510;43.200;27.920;2023-04-24T11:56:55;9.27;;;4.65;;
6941;SDS011;3510;43.200;27.920;2023-04-24T11:59:22;10.80;;;5.13;;
6941;SDS011;3510;43.200;27.920;2023-04-24T12:01:49;11.35;;;4.85;;
6941;SDS011;3510;43.200;27.920;2023-04-24T12:04:17;6.63;;;4.68;;
6941;SDS011;3510;43.200;27.920;2023-04-24T12:14:35;12.25;;;4.68;;
6941;SDS011;3510;43.200;27.920;2023-04-24T12:17:16;5.00;;;3.90;;
6941;SDS011;3510;43.200;27.920;2023-04-24T12:19:56;4.78;;;4.20;;
6941;SDS011;3510;43.200;27.920;2023-04-24T13:02:53;8.02;;;4.00;;
6941;SDS011;3510;43.200;27.920;2023-04-24T13:05:20;8.77;;;4.43;;
6941;SDS011;3510;43.200;27.920;2023-04-24T13:10:42;7.63;;;4.22;;
6941;SDS011;3510;43.200;27.920;2023-04-24T13:13:09;4.75;;;4.40;;
6941;SDS011;3510;43.200;27.920;2023-04-24T13:15:36;6.32;;;4.13;;
6941;SDS011;3510;43.200;27.920;2023-04-24T13:18:06;7.88;;;3.75;;
6941;SDS011;3510;43.200;27.920;2023-04-24T13:20:34;11.88;;;4.32;;
6941;SDS011;3510;43.200;27.920;2023-04-24T13:23:03;7.55;;;4.10;;
6941;SDS011;3510;43.200;27.920;2023-04-24T13:25:34;9.27;;;4.15;;
6941;SDS011;3510;43.200;27.920;2023-04-24T13:28:02;6.20;;;4.15;;
6941;SDS011;3510;43.200;27.920;2023-04-24T13:30:29;6.45;;;4.22;;
6941;SDS011;3510;43.200;27.920;2023-04-24T13:38:32;9.80;;;4.38;;
6941;SDS011;3510;43.200;27.920;2023-04-24T13:40:59;6.57;;;4.47;;
6941;SDS011;3510;43.200;27.920;2023-04-24T13:43:40;5.97;;;4.20;;
6941;SDS011;3510;43.200;27.920;2023-04-24T13:46:08;8.87;;;4.73;;
6941;SDS011;3510;43.200;27.920;2023-04-24T13:48:44;8.25;;;5.45;;
6941;SDS011;3510;43.200;27.920;2023-04-24T13:53:47;12.02;;;5.15;;
6941;SDS011;3510;43.200;27.920;2023-04-24T13:56:34;8.52;;;4.63;;
6941;SDS011;3510;43.200;27.920;2023-04-24T13:59:23;9.20;;;3.67;;
6941;SDS011;3510;43.200;27.920;2023-04-24T14:02:04;10.63;;;3.92;;
6941;SDS011;3510;43.200;27.920;2023-04-24T14:04:35;9.13;;;4.32;;
6941;SDS011;3510;43.200;27.920;2023-04-24T14:07:05;7.15;;;4.25;;
6941;SDS011;3510;43.200;27.920;2023-04-24T14:09:33;9.07;;;4.88;;
6941;SDS011;3510;43.200;27.920;2023-04-24T14:12:14;7.80;;;3.90;;
6941;SDS011;3510;43.200;27.920;2023-04-24T14:14:43;13.57;;;4.43;;
6941;SDS011;3510;43.200;27.920;2023-04-24T14:17:10;8.15;;;3.90;;
6941;SDS011;3510;43.200;27.920;2023-04-24T14:19:38;5.35;;;3.80;;
6941;SDS011;3510;43.200;27.920;2023-04-24T14:22:05;7.70;;;4.18;;
6941;SDS011;3510;43.200;27.920;2023-04-24T14:24:32;7.18;;;4.50;;
6941;SDS011;3510;43.200;27.920;2023-04-24T14:29:44;9.20;;;3.38;;
6941;SDS011;3510;43.200;27.920;2023-04-24T14:32:11;6.72;;;3.63;;
6941;SDS011;3510;43.200;27.920;2023-04-24T14:34:41;9.25;;;3.85;;
6941;SDS011;3510;43.200;27.920;2023-04-24T14:37:12;7.32;;;3.60;;
6941;SDS011;3510;43.200;27.920;2023-04-24T14:39:41;6.95;;;3.92;;
6941;SDS011;3510;43.200;27.920;2023-04-24T14:43:15;7.97;;;3.75;;
6941;SDS011;3510;43.200;27.920;2023-04-24T14:45:56;10.98;;;3.75;;
6941;SDS011;3510;43.200;27.920;2023-04-24T14:48:51;5.95;;;3.60;;
6941;SDS011;3510;43.200;27.920;2023-04-24T14:51:25;7.32;;;3.90;;
6941;SDS011;3510;43.200;27.920;2023-04-24T14:54:06;9.40;;;4.57;;
6941;SDS011;3510;43.200;27.920;2023-04-24T14:56:34;8.35;;;3.42;;
6941;SDS011;3510;43.200;27.920;2023-04-24T14:59:03;6.05;;;3.83;;
6941;SDS011;3510;43.200;27.920;2023-04-24T15:01:32;5.22;;;4.22;;
6941;SDS011;3510;43.200;27.920;2023-04-24T15:04:01;8.00;;;3.95;;
6941;SDS011;3510;43.200;27.920;2023-04-24T15:06:30;6.20;;;3.72;;
6941;SDS011;3510;43.200;27.920;2023-04-24T15:09:01;6.07;;;4.25;;
6941;SDS011;3510;43.200;27.920;2023-04-24T15:11:44;7.53;;;4.00;;
6941;SDS011;3510;43.200;27.920;2023-04-24T15:14:28;9.15;;;4.40;;
6941;SDS011;3510;43.200;27.920;2023-04-24T15:16:56;7.70;;;4.50;;
6941;SDS011;3510;43.200;27.920;2023-04-24T15:19:24;6.03;;;3.53;;
6941;SDS011;3510;43.200;27.920;2023-04-24T15:24:28;10.73;;;4.22;;
6941;SDS011;3510;43.200;27.920;2023-04-24T15:27:10;7.18;;;4.38;;
6941;SDS011;3510;43.200;27.920;2023-04-24T15:32:31;4.05;;;3.75;;
6941;SDS011;3510;43.200;27.920;2023-04-24T15:35:00;10.30;;;4.50;;
6941;SDS011;3510;43.200;27.920;2023-04-24T15:37:27;8.90;;;4.32;;
6941;SDS011;3510;43.200;27.920;2023-04-24T15:40:08;6.20;;;4.38;;
6941;SDS011;3510;43.200;27.920;2023-04-24T15:42:38;6.15;;;4.20;;
6941;SDS011;3510;43.200;27.920;2023-04-24T15:45:19;13.82;;;5.20;;
6941;SDS011;3510;43.200;27.920;2023-04-24T15:48:08;6.53;;;3.90;;
6941;SDS011;3510;43.200;27.920;2023-04-24T15:50:35;5.72;;;4.30;;
6941;SDS011;3510;43.200;27.920;2023-04-24T15:53:04;9.43;;;3.88;;
6941;SDS011;3510;43.200;27.920;2023-04-24T15:55:32;13.75;;;4.35;;
6941;SDS011;3510;43.200;27.920;2023-04-24T15:58:13;5.07;;;4.10;;
6941;SDS011;3510;43.200;27.920;2023-04-24T16:00:48;5.93;;;4.30;;
6941;SDS011;3510;43.200;27.920;2023-04-24T16:03:21;5.28;;;4.32;;
6941;SDS011;3510;43.200;27.920;2023-04-24T16:05:51;6.47;;;4.25;;
6941;SDS011;3510;43.200;27.920;2023-04-24T16:08:26;8.00;;;4.30;;
6941;SDS011;3510;43.200;27.920;2023-04-24T16:10:56;13.27;;;5.27;;
6941;SDS011;3510;43.200;27.920;2023-04-24T16:13:23;6.55;;;4.18;;
6941;SDS011;3510;43.200;27.920;2023-04-24T16:16:04;8.30;;;5.00;;
6941;SDS011;3510;43.200;27.920;2023-04-24T16:18:38;9.53;;;4.87;;
6941;SDS011;3510;43.200;27.920;2023-04-24T16:21:18;6.37;;;4.10;;
6941;SDS011;3510;43.200;27.920;2023-04-24T16:23:45;8.23;;;4.37;;
6941;SDS011;3510;43.200;27.920;2023-04-24T16:26:17;11.23;;;4.43;;
6941;SDS011;3510;43.200;27.920;2023-04-24T16:28:58;10.70;;;4.90;;
6941;SDS011;3510;43.200;27.920;2023-04-24T16:31:29;9.53;;;4.27;;
6941;SDS011;3510;43.200;27.920;2023-04-24T16:34:11;13.93;;;4.50;;
6941;SDS011;3510;43.200;27.920;2023-04-24T16:36:39;4.63;;;4.33;;
6941;SDS011;3510;43.200;27.920;2023-04-24T16:39:08;5.53;;;4.53;;
6941;SDS011;3510;43.200;27.920;2023-04-24T16:41:35;15.27;;;4.50;;
6941;SDS011;3510;43.200;27.920;2023-04-24T16:44:02;7.00;;;4.77;;
6941;SDS011;3510;43.200;27.920;2023-04-24T16:46:28;9.97;;;4.47;;
6941;SDS011;3510;43.200;27.920;2023-04-24T16:48:56;10.33;;;3.87;;
6941;SDS011;3510;43.200;27.920;2023-04-24T16:51:24;5.07;;;4.43;;
6941;SDS011;3510;43.200;27.920;2023-04-24T16:53:54;6.73;;;4.43;;
6941;SDS011;3510;43.200;27.920;2023-04-24T16:56:21;9.10;;;4.37;;
6941;SDS011;3510;43.200;27.920;2023-04-24T16:58:48;9.83;;;4.37;;
6941;SDS011;3510;43.200;27.920;2023-04-24T17:01:16;7.67;;;4.50;;
6941;SDS011;3510;43.200;27.920;2023-04-24T17:03:43;7.33;;;4.60;;
6941;SDS011;3510;43.200;27.920;2023-04-24T17:06:10;13.90;;;4.87;;
6941;SDS011;3510;43.200;27.920;2023-04-24T17:08:46;9.53;;;4.30;;
6941;SDS011;3510;43.200;27.920;2023-04-24T17:11:14;7.37;;;4.37;;
6941;SDS011;3510;43.200;27.920;2023-04-24T17:13:41;9.40;;;4.60;;
6941;SDS011;3510;43.200;27.920;2023-04-24T17:16:17;9.77;;;4.53;;
6941;SDS011;3510;43.200;27.920;2023-04-24T17:18:50;5.93;;;4.13;;
6941;SDS011;3510;43.200;27.920;2023-04-24T17:21:30;7.60;;;4.00;;
6941;SDS011;3510;43.200;27.920;2023-04-24T17:24:02;7.30;;;4.23;;
6941;SDS011;3510;43.200;27.920;2023-04-24T17:26:36;13.93;;;4.33;;
6941;SDS011;3510;43.200;27.920;2023-04-24T17:29:32;6.30;;;4.63;;
6941;SDS011;3510;43.200;27.920;2023-04-24T17:32:06;5.23;;;3.93;;
6941;SDS011;3510;43.200;27.920;2023-04-24T17:34:32;12.47;;;5.90;;
6941;SDS011;3510;43.200;27.920;2023-04-24T17:37:00;7.27;;;4.97;;
6941;SDS011;3510;43.200;27.920;2023-04-24T17:39:29;6.53;;;4.23;;
6941;SDS011;3510;43.200;27.920;2023-04-24T17:41:56;8.90;;;4.50;;
6941;SDS011;3510;43.200;27.920;2023-04-24T17:44:23;9.13;;;4.40;;
6941;SDS011;3510;43.200;27.920;2023-04-24T17:46:54;8.73;;;4.40;;
6941;SDS011;3510;43.200;27.920;2023-04-24T17:49:22;9.50;;;4.73;;
6941;SDS011;3510;43.200;27.920;2023-04-24T17:51:50;9.07;;;5.27;;
6941;SDS011;3510;43.200;27.920;2023-04-24T17:54:18;6.00;;;4.57;;
6941;SDS011;3510;43.200;27.920;2023-04-24T17:56:46;4.80;;;4.17;;
6941;SDS011;3510;43.200;27.920;2023-04-24T17:59:13;6.90;;;4.53;;
6941;SDS011;3510;43.200;27.920;2023-04-24T18:01:42;5.87;;;4.70;;
6941;SDS011;3510;43.200;27.920;2023-04-24T18:04:23;9.47;;;4.80;;
6941;SDS011;3510;43.200;27.920;2023-04-24T18:06:51;8.83;;;4.80;;
6941;SDS011;3510;43.200;27.920;2023-04-24T18:09:19;9.53;;;4.50;;
6941;SDS011;3510;43.200;27.920;2023-04-24T18:12:21;12.60;;;4.40;;
6941;SDS011;3510;43.200;27.920;2023-04-24T18:14:48;5.37;;;4.10;;
6941;SDS011;3510;43.200;27.920;2023-04-24T18:17:16;7.97;;;4.63;;
6941;SDS011;3510;43.200;27.920;2023-04-24T18:19:43;10.17;;;4.17;;
6941;SDS011;3510;43.200;27.920;2023-04-24T18:22:15;9.40;;;4.00;;
6941;SDS011;3510;43.200;27.920;2023-04-24T18:24:41;7.07;;;4.30;;
6941;SDS011;3510;43.200;27.920;2023-04-24T18:27:09;4.33;;;4.03;;
6941;SDS011;3510;43.200;27.920;2023-04-24T18:29:37;10.13;;;4.43;;
6941;SDS011;3510;43.200;27.920;2023-04-24T18:32:05;6.57;;;4.67;;
6941;SDS011;3510;43.200;27.920;2023-04-24T18:34:32;8.27;;;4.83;;
6941;SDS011;3510;43.200;27.920;2023-04-24T18:36:59;6.40;;;4.37;;
6941;SDS011;3510;43.200;27.920;2023-04-24T18:39:26;8.13;;;4.60;;
6941;SDS011;3510;43.200;27.920;2023-04-24T18:41:54;5.40;;;4.53;;
6941;SDS011;3510;43.200;27.920;2023-04-24T18:44:21;10.20;;;4.93;;
6941;SDS011;3510;43.200;27.920;2023-04-24T18:46:52;7.43;;;4.90;;
6941;SDS011;3510;43.200;27.920;2023-04-24T18:49:19;5.53;;;4.57;;
6941;SDS011;3510;43.200;27.920;2023-04-24T18:51:47;7.83;;;4.27;;
6941;SDS011;3510;43.200;27.920;2023-04-24T18:54:14;10.53;;;4.73;;
6941;SDS011;3510;43.200;27.920;2023-04-24T18:56:41;17.40;;;5.13;;
6941;SDS011;3510;43.200;27.920;2023-04-24T18:59:09;4.73;;;4.33;;
6941;SDS011;3510;43.200;27.920;2023-04-24T19:01:37;4.27;;;3.70;;
6941;SDS011;3510;43.200;27.920;2023-04-24T19:04:08;7.63;;;4.87;;
6941;SDS011;3510;43.200;27.920;2023-04-24T19:06:44;9.37;;;4.40;;
6941;SDS011;3510;43.200;27.920;2023-04-24T19:11:48;12.47;;;4.70;;
6941;SDS011;3510;43.200;27.920;2023-04-24T19:14:15;7.63;;;4.53;;
6941;SDS011;3510;43.200;27.920;2023-04-24T19:16:43;6.53;;;4.67;;
6941;SDS011;3510;43.200;27.920;2023-04-24T19:19:13;7.67;;;4.13;;
6941;SDS011;3510;43.200;27.920;2023-04-24T19:21:45;12.90;;;4.67;;
6941;SDS011;3510;43.200;27.920;2023-04-24T19:24:14;8.33;;;4.70;;
6941;SDS011;3510;43.200;27.920;2023-04-24T19:26:43;8.10;;;5.27;;
6941;SDS011;3510;43.200;27.920;2023-04-24T19:31:45;8.73;;;4.93;;
6941;SDS011;3510;43.200;27.920;2023-04-24T19:34:15;12.60;;;4.17;;
6941;SDS011;3510;43.200;27.920;2023-04-24T19:36:43;8.17;;;4.33;;
6941;SDS011;3510;43.200;27.920;2023-04-24T19:39:10;7.90;;;4.50;;
6941;SDS011;3510;43.200;27.920;2023-04-24T19:41:37;12.10;;;4.43;;
6941;SDS011;3510;43.200;27.920;2023-04-24T19:44:05;4.67;;;4.30;;
6941;SDS011;3510;43.200;27.920;2023-04-24T19:46:35;8.70;;;4.37;;
6941;SDS011;3510;43.200;27.920;2023-04-24T19:49:04;8.53;;;5.00;;
6941;SDS011;3510;43.200;27.920;2023-04-24T19:51:32;5.87;;;3.77;;
6941;SDS011;3510;43.200;27.920;2023-04-24T19:54:00;7.07;;;4.70;;
6941;SDS011;3510;43.200;27.920;2023-04-24T19:56:38;4.97;;;4.13;;
6941;SDS011;3510;43.200;27.920;2023-04-24T20:01:42;4.10;;;3.73;;
6941;SDS011;3510;43.200;27.920;2023-04-24T20:04:09;5.20;;;4.47;;
6941;SDS011;3510;43.200;27.920;2023-04-24T20:06:38;8.97;;;4.33;;
6941;SDS011;3510;43.200;27.920;2023-04-24T20:09:06;10.77;;;5.40;;
6941;SDS011;3510;43.200;27.920;2023-04-24T20:11:33;6.00;;;4.53;;
6941;SDS011;3510;43.200;27.920;2023-04-24T20:13:59;8.40;;;4.43;;
6941;SDS011;3510;43.200;27.920;2023-04-24T20:16:27;7.70;;;4.37;;
6941;SDS011;3510;43.200;27.920;2023-04-24T20:18:55;9.17;;;4.67;;
6941;SDS011;3510;43.200;27.920;2023-04-24T20:21:22;6.43;;;4.07;;
6941;SDS011;3510;43.200;27.920;2023-04-24T20:23:50;7.90;;;4.20;;
6941;SDS011;3510;43.200;27.920;2023-04-24T20:26:17;5.40;;;4.10;;
6941;SDS011;3510;43.200;27.920;2023-04-24T20:28:46;9.50;;;4.30;;
6941;SDS011;3510;43.200;27.920;2023-04-24T20:31:27;7.00;;;3.87;;
6941;SDS011;3510;43.200;27.920;2023-04-24T20:36:30;8.97;;;5.07;;
6941;SDS011;3510;43.200;27.920;2023-04-24T20:39:02;5.23;;;4.83;;
6941;SDS011;3510;43.200;27.920;2023-04-24T20:41:32;7.90;;;4.17;;
6941;SDS011;3510;43.200;27.920;2023-04-24T20:43:59;10.07;;;4.13;;
6941;SDS011;3510;43.200;27.920;2023-04-24T20:46:28;10.10;;;4.53;;
6941;SDS011;3510;43.200;27.920;2023-04-24T20:48:56;10.30;;;4.67;;
6941;SDS011;3510;43.200;27.920;2023-04-24T20:51:27;10.30;;;4.30;;
6941;SDS011;3510;43.200;27.920;2023-04-24T20:53:54;6.50;;;4.13;;
6941;SDS011;3510;43.200;27.920;2023-04-24T20:56:25;6.07;;;4.50;;
6941;SDS011;3510;43.200;27.920;2023-04-24T20:58:53;10.17;;;4.30;;
6941;SDS011;3510;43.200;27.920;2023-04-24T21:01:20;7.40;;;4.47;;
6941;SDS011;3510;43.200;27.920;2023-04-24T21:03:47;12.23;;;5.60;;
6941;SDS011;3510;43.200;27.920;2023-04-24T21:06:13;10.47;;;4.33;;
6941;SDS011;3510;43.200;27.920;2023-04-24T21:08:41;12.93;;;4.80;;
6941;SDS011;3510;43.200;27.920;2023-04-24T21:11:07;14.87;;;5.33;;
6941;SDS011;3510;43.200;27.920;2023-04-24T21:13:36;12.60;;;5.10;;
6941;SDS011;3510;43.200;27.920;2023-04-24T21:16:04;10.80;;;4.87;;
6941;SDS011;3510;43.200;27.920;2023-04-24T21:18:31;7.93;;;4.70;;
6941;SDS011;3510;43.200;27.920;2023-04-24T21:20:58;9.23;;;4.47;;
6941;SDS011;3510;43.200;27.920;2023-04-24T21:23:28;9.73;;;4.77;;
6941;SDS011;3510;43.200;27.920;2023-04-24T21:25:55;11.13;;;4.40;;
6941;SDS011;3510;43.200;27.920;2023-04-24T21:28:22;9.83;;;4.90;;
6941;SDS011;3510;43.200;27.920;2023-04-24T21:30:50;13.47;;;5.83;;
6941;SDS011;3510;43.200;27.920;2023-04-24T21:33:18;11.87;;;4.77;;
6941;SDS011;3510;43.200;27.920;2023-04-24T21:35:44;13.10;;;4.70;;
6941;SDS011;3510;43.200;27.920;2023-04-24T21:38:12;9.90;;;4.83;;
6941;SDS011;3510;43.200;27.920;2023-04-24T21:40:39;10.10;;;4.27;;
6941;SDS011;3510;43.200;27.920;2023-04-24T21:43:06;9.80;;;6.03;;
6941;SDS011;3510;43.200;27.920;2023-04-24T21:45:34;10.13;;;4.33;;
6941;SDS011;3510;43.200;27.920;2023-04-24T21:48:02;11.57;;;4.40;;
6941;SDS011;3510;43.200;27.920;2023-04-24T21:50:28;5.73;;;5.13;;
6941;SDS011;3510;43.200;27.920;2023-04-24T21:52:55;14.40;;;5.10;;
6941;SDS011;3510;43.200;27.920;2023-04-24T21:55:22;5.27;;;4.30;;
6941;SDS011;3510;43.200;27.920;2023-04-24T21:57:51;6.93;;;4.77;;
6941;SDS011;3510;43.200;27.920;2023-04-24T22:00:17;10.00;;;4.80;;
6941;SDS011;3510;43.200;27.920;2023-04-24T22:02:45;9.50;;;4.90;;
6941;SDS011;3510;43.200;27.920;2023-04-24T22:05:13;10.03;;;5.03;;
6941;SDS011;3510;43.200;27.920;2023-04-24T22:07:42;8.73;;;4.77;;
6941;SDS011;3510;43.200;27.920;2023-04-24T22:10:10;9.77;;;4.87;;
6941;SDS011;3510;43.200;27.920;2023-04-24T22:12:38;8.67;;;4.90;;
6941;SDS011;3510;43.200;27.920;2023-04-24T22:15:06;17.00;;;5.03;;
6941;SDS011;3510;43.200;27.920;2023-04-24T22:17:34;8.33;;;5.30;;
6941;SDS011;3510;43.200;27.920;2023-04-24T22:20:03;6.23;;;5.10;;
6941;SDS011;3510;43.200;27.920;2023-04-24T22:22:32;10.40;;;5.10;;
6941;SDS011;3510;43.200;27.920;2023-04-24T22:25:04;13.97;;;5.30;;
6941;SDS011;3510;43.200;27.920;2023-04-24T22:27:32;5.90;;;5.00;;
6941;SDS011;3510;43.200;27.920;2023-04-24T22:29:59;7.00;;;5.03;;
6941;SDS011;3510;43.200;27.920;2023-04-24T22:32:26;14.10;;;5.20;;
6941;SDS011;3510;43.200;27.920;2023-04-24T22:34:56;9.23;;;5.43;;
6941;SDS011;3510;43.200;27.920;2023-04-24T22:37:22;7.73;;;4.97;;
6941;SDS011;3510;43.200;27.920;2023-04-24T22:39:51;12.33;;;5.50;;
6941;SDS011;3510;43.200;27.920;2023-04-24T22:42:17;10.57;;;4.80;;